Simanovsk, Russia
Current Conditions -  °F | °C
As of 3:00 AM on Saturday 29 Nov 2014 (Local Time) from UHBB Reporting Station
Clear Clear  
Wind Chill: -11°   Ceiling: Unl
Heat Index: -11°   Visibility: 6mi
Dew Point: -13°   Wind: 2mph
Humidity: 92%   Direction: 80°E
Pressure: 30.18"   Gusts: NA
Location:  51.98°N, 127.65°E
Report Text: UHBB 281800Z 08001MPS CAVOK M24/M25 Q1022 NOSIG RMK QFE749/099936410250
Loading
Personal Weather Stations






























Interactive Weather Map New forecast layout! Learn more

10-Day Weather Forecast

Advertisements
Track Severe Weather on mobile